sensor_id;sensor_type;location;lat;lon;timestamp;pressure;altitude;pressure_sealevel;temperature;humidity
7333;BME280;3707;43.618;25.342;2022-11-06T00:00:32;99764.00;;;13.93;100.00
7333;BME280;3707;43.618;25.342;2022-11-06T00:02:59;99738.88;;;13.75;100.00
7333;BME280;3707;43.618;25.342;2022-11-06T00:05:28;99760.53;;;13.94;100.00
7333;BME280;3707;43.618;25.342;2022-11-06T00:08:13;99738.91;;;13.68;100.00
7333;BME280;3707;43.618;25.342;2022-11-06T00:10:40;99762.34;;;13.71;100.00
7333;BME280;3707;43.618;25.342;2022-11-06T00:13:07;99764.09;;;13.69;100.00
7333;BME280;3707;43.618;25.342;2022-11-06T00:15:34;99766.69;;;13.70;100.00
7333;BME280;3707;43.618;25.342;2022-11-06T00:18:01;99751.97;;;13.53;100.00
7333;BME280;3707;43.618;25.342;2022-11-06T00:20:29;99757.16;;;13.65;100.00
7333;BME280;3707;43.618;25.342;2022-11-06T00:22:55;99753.72;;;13.48;100.00
7333;BME280;3707;43.618;25.342;2022-11-06T00:25:22;99739.84;;;13.39;100.00
7333;BME280;3707;43.618;25.342;2022-11-06T00:27:49;99754.59;;;13.50;100.00
7333;BME280;3707;43.618;25.342;2022-11-06T00:30:16;99751.13;;;13.43;100.00
7333;BME280;3707;43.618;25.342;2022-11-06T00:32:44;99755.47;;;13.43;100.00
7333;BME280;3707;43.618;25.342;2022-11-06T00:35:11;99755.47;;;13.41;100.00
7333;BME280;3707;43.618;25.342;2022-11-06T00:37:39;99760.66;;;13.50;100.00
7333;BME280;3707;43.618;25.342;2022-11-06T00:40:07;99754.63;;;13.40;100.00
7333;BME280;3707;43.618;25.342;2022-11-06T00:42:34;99756.34;;;13.35;100.00
7333;BME280;3707;43.618;25.342;2022-11-06T00:45:00;99759.81;;;13.24;100.00
7333;BME280;3707;43.618;25.342;2022-11-06T00:47:27;99764.19;;;13.26;100.00
7333;BME280;3707;43.618;25.342;2022-11-06T00:49:54;99737.25;;;13.00;100.00
7333;BME280;3707;43.618;25.342;2022-11-06T00:52:21;99761.59;;;13.16;100.00
7333;BME280;3707;43.618;25.342;2022-11-06T00:54:49;99762.44;;;13.22;100.00
7333;BME280;3707;43.618;25.342;2022-11-06T00:57:16;99764.19;;;13.11;100.00
7333;BME280;3707;43.618;25.342;2022-11-06T00:59:42;99764.19;;;13.14;100.00
7333;BME280;3707;43.618;25.342;2022-11-06T01:02:09;99744.22;;;13.01;100.00
7333;BME280;3707;43.618;25.342;2022-11-06T01:04:36;99762.44;;;13.13;100.00
7333;BME280;3707;43.618;25.342;2022-11-06T01:07:03;99771.09;;;13.09;100.00
7333;BME280;3707;43.618;25.342;2022-11-06T01:09:29;99759.81;;;13.01;100.00
7333;BME280;3707;43.618;25.342;2022-11-06T01:11:58;99738.13;;;13.05;100.00
7333;BME280;3707;43.618;25.342;2022-11-06T01:14:25;99755.47;;;13.06;100.00
7333;BME280;3707;43.618;25.342;2022-11-06T01:16:52;99720.75;;;12.74;100.00
7333;BME280;3707;43.618;25.342;2022-11-06T01:19:20;99771.09;;;13.00;100.00
7333;BME280;3707;43.618;25.342;2022-11-06T01:21:49;99761.56;;;12.95;100.00
7333;BME280;3707;43.618;25.342;2022-11-06T01:24:19;99764.16;;;12.96;100.00
7333;BME280;3707;43.618;25.342;2022-11-06T01:26:47;99765.00;;;12.89;100.00
7333;BME280;3707;43.618;25.342;2022-11-06T01:29:17;99764.16;;;12.96;100.00
7333;BME280;3707;43.618;25.342;2022-11-06T01:31:45;99732.91;;;12.72;100.00
7333;BME280;3707;43.618;25.342;2022-11-06T01:34:14;99762.41;;;12.75;100.00
7333;BME280;3707;43.618;25.342;2022-11-06T01:36:41;99740.69;;;12.60;100.00
7333;BME280;3707;43.618;25.342;2022-11-06T01:39:10;99762.41;;;12.83;100.00
7333;BME280;3707;43.618;25.342;2022-11-06T01:41:39;99756.31;;;12.81;100.00
7333;BME280;3707;43.618;25.342;2022-11-06T01:47:18;99757.22;;;12.83;100.00
7333;BME280;3707;43.618;25.342;2022-11-06T01:49:45;99772.81;;;12.69;100.00
7333;BME280;3707;43.618;25.342;2022-11-06T01:52:13;99760.66;;;12.79;100.00
7333;BME280;3707;43.618;25.342;2022-11-06T01:54:43;99763.25;;;12.77;100.00
7333;BME280;3707;43.618;25.342;2022-11-06T01:57:12;99753.69;;;12.54;100.00
7333;BME280;3707;43.618;25.342;2022-11-06T01:59:42;99771.09;;;12.73;100.00
7333;BME280;3707;43.618;25.342;2022-11-06T02:02:10;99749.34;;;12.50;100.00
7333;BME280;3707;43.618;25.342;2022-11-06T02:04:42;99776.28;;;12.70;100.00
7333;BME280;3707;43.618;25.342;2022-11-06T02:07:09;99771.91;;;12.61;100.00
7333;BME280;3707;43.618;25.342;2022-11-06T02:09:36;99779.72;;;12.61;100.00
7333;BME280;3707;43.618;25.342;2022-11-06T02:12:13;99701.66;;;12.26;100.00
7333;BME280;3707;43.618;25.342;2022-11-06T02:14:50;99753.72;;;12.55;100.00
7333;BME280;3707;43.618;25.342;2022-11-06T02:17:33;99774.53;;;12.75;100.00
7333;BME280;3707;43.618;25.342;2022-11-06T02:20:07;99745.00;;;12.49;100.00
7333;BME280;3707;43.618;25.342;2022-11-06T02:22:47;99764.09;;;12.60;100.00
7333;BME280;3707;43.618;25.342;2022-11-06T02:25:24;99792.75;;;12.69;100.00
7333;BME280;3707;43.618;25.342;2022-11-06T02:27:59;99781.47;;;12.65;100.00
7333;BME280;3707;43.618;25.342;2022-11-06T02:30:29;99713.75;;;12.17;100.00
7333;BME280;3707;43.618;25.342;2022-11-06T02:33:01;99797.94;;;12.66;100.00
7333;BME280;3707;43.618;25.342;2022-11-06T02:35:33;99810.09;;;12.71;100.00
7333;BME280;3707;43.618;25.342;2022-11-06T02:38:04;99817.88;;;12.64;100.00
7333;BME280;3707;43.618;25.342;2022-11-06T02:40:35;99810.94;;;12.66;100.00
7333;BME280;3707;43.618;25.342;2022-11-06T02:43:06;99756.22;;;12.31;100.00
7333;BME280;3707;43.618;25.342;2022-11-06T02:45:39;99808.34;;;12.61;100.00
7333;BME280;3707;43.618;25.342;2022-11-06T02:48:08;99812.69;;;12.76;100.00
7333;BME280;3707;43.618;25.342;2022-11-06T02:50:41;99821.41;;;12.87;100.00
7333;BME280;3707;43.618;25.342;2022-11-06T02:53:09;99820.53;;;12.91;100.00
7333;BME280;3707;43.618;25.342;2022-11-06T02:55:40;99830.09;;;13.01;100.00
7333;BME280;3707;43.618;25.342;2022-11-06T02:58:13;99822.28;;;13.07;100.00
7333;BME280;3707;43.618;25.342;2022-11-06T03:00:46;99823.16;;;13.09;100.00
7333;BME280;3707;43.618;25.342;2022-11-06T03:03:20;99820.53;;;13.06;100.00
7333;BME280;3707;43.618;25.342;2022-11-06T03:05:53;99811.00;;;13.01;100.00
7333;BME280;3707;43.618;25.342;2022-11-06T03:08:25;99828.41;;;13.12;100.00
7333;BME280;3707;43.618;25.342;2022-11-06T03:11:00;99824.91;;;13.13;100.00
7333;BME280;3707;43.618;25.342;2022-11-06T03:13:38;99834.47;;;13.23;100.00
7333;BME280;3707;43.618;25.342;2022-11-06T03:16:22;99830.13;;;13.22;100.00
7333;BME280;3707;43.618;25.342;2022-11-06T03:18:54;99837.06;;;13.31;100.00
7333;BME280;3707;43.618;25.342;2022-11-06T03:21:26;99840.56;;;13.30;100.00
7333;BME280;3707;43.618;25.342;2022-11-06T03:24:00;99844.03;;;13.33;100.00
7333;BME280;3707;43.618;25.342;2022-11-06T03:26:32;99849.22;;;13.36;100.00
7333;BME280;3707;43.618;25.342;2022-11-06T03:29:08;99846.63;;;13.50;100.00
7333;BME280;3707;43.618;25.342;2022-11-06T03:31:43;99847.50;;;13.55;100.00
7333;BME280;3707;43.618;25.342;2022-11-06T03:34:17;99819.72;;;13.31;100.00
7333;BME280;3707;43.618;25.342;2022-11-06T03:36:50;99844.88;;;13.51;100.00
7333;BME280;3707;43.618;25.342;2022-11-06T03:39:20;99857.00;;;13.71;100.00
7333;BME280;3707;43.618;25.342;2022-11-06T03:41:54;99868.31;;;13.72;100.00
7333;BME280;3707;43.618;25.342;2022-11-06T03:44:29;99866.53;;;13.77;100.00
7333;BME280;3707;43.618;25.342;2022-11-06T03:47:02;99870.91;;;13.75;100.00
7333;BME280;3707;43.618;25.342;2022-11-06T03:49:35;99835.31;;;13.31;100.00
7333;BME280;3707;43.618;25.342;2022-11-06T03:52:07;99863.97;;;13.47;100.00
7333;BME280;3707;43.618;25.342;2022-11-06T03:54:38;99865.72;;;13.51;100.00
7333;BME280;3707;43.618;25.342;2022-11-06T03:57:10;99841.38;;;13.49;100.00
7333;BME280;3707;43.618;25.342;2022-11-06T03:59:43;99863.09;;;13.63;100.00
7333;BME280;3707;43.618;25.342;2022-11-06T04:02:12;99872.66;;;13.44;100.00
7333;BME280;3707;43.618;25.342;2022-11-06T04:04:45;99849.22;;;13.49;100.00
7333;BME280;3707;43.618;25.342;2022-11-06T04:07:15;99866.59;;;13.65;100.00
7333;BME280;3707;43.618;25.342;2022-11-06T04:09:48;99869.16;;;13.77;100.00
7333;BME280;3707;43.618;25.342;2022-11-06T04:12:35;99870.91;;;13.78;100.00
7333;BME280;3707;43.618;25.342;2022-11-06T04:15:25;99877.84;;;13.91;100.00
7333;BME280;3707;43.618;25.342;2022-11-06T04:17:55;99875.25;;;13.73;100.00
7333;BME280;3707;43.618;25.342;2022-11-06T04:20:23;99885.66;;;13.82;100.00
7333;BME280;3707;43.618;25.342;2022-11-06T04:23:13;99887.38;;;13.98;100.00
7333;BME280;3707;43.618;25.342;2022-11-06T04:25:52;99895.19;;;14.03;100.00
7333;BME280;3707;43.618;25.342;2022-11-06T04:28:47;99889.13;;;13.81;100.00
7333;BME280;3707;43.618;25.342;2022-11-06T04:31:28;99892.63;;;13.80;100.00
7333;BME280;3707;43.618;25.342;2022-11-06T04:34:01;99896.09;;;13.79;100.00
7333;BME280;3707;43.618;25.342;2022-11-06T04:36:43;99884.78;;;13.94;100.00
7333;BME280;3707;43.618;25.342;2022-11-06T04:39:17;99892.59;;;13.98;100.00
7333;BME280;3707;43.618;25.342;2022-11-06T04:41:56;99889.13;;;13.93;100.00
7333;BME280;3707;43.618;25.342;2022-11-06T04:44:27;99889.13;;;13.96;100.00
7333;BME280;3707;43.618;25.342;2022-11-06T04:46:59;99900.38;;;14.03;100.00
7333;BME280;3707;43.618;25.342;2022-11-06T04:49:29;99902.16;;;13.93;100.00
7333;BME280;3707;43.618;25.342;2022-11-06T04:51:57;99890.88;;;13.77;100.00
7333;BME280;3707;43.618;25.342;2022-11-06T04:54:25;99900.44;;;13.80;100.00
7333;BME280;3707;43.618;25.342;2022-11-06T04:56:56;99883.94;;;13.70;100.00
7333;BME280;3707;43.618;25.342;2022-11-06T04:59:24;99896.13;;;13.52;100.00
7333;BME280;3707;43.618;25.342;2022-11-06T05:01:51;99894.38;;;13.51;100.00
7333;BME280;3707;43.618;25.342;2022-11-06T05:04:20;99907.38;;;13.67;100.00
7333;BME280;3707;43.618;25.342;2022-11-06T05:06:46;99897.84;;;13.59;100.00
7333;BME280;3707;43.618;25.342;2022-11-06T05:09:13;99907.38;;;13.63;100.00
7333;BME280;3707;43.618;25.342;2022-11-06T05:11:40;99906.50;;;13.64;100.00
7333;BME280;3707;43.618;25.342;2022-11-06T05:14:07;99903.91;;;13.59;100.00
7333;BME280;3707;43.618;25.342;2022-11-06T05:16:33;99908.25;;;13.47;100.00
7333;BME280;3707;43.618;25.342;2022-11-06T05:19:00;99912.59;;;13.34;100.00
7333;BME280;3707;43.618;25.342;2022-11-06T05:21:28;99913.47;;;13.47;100.00
7333;BME280;3707;43.618;25.342;2022-11-06T05:24:13;99916.06;;;13.45;100.00
7333;BME280;3707;43.618;25.342;2022-11-06T05:26:39;99915.22;;;13.51;100.00
7333;BME280;3707;43.618;25.342;2022-11-06T05:29:06;99913.47;;;13.59;100.00
7333;BME280;3707;43.618;25.342;2022-11-06T05:31:33;99923.88;;;13.77;100.00
7333;BME280;3707;43.618;25.342;2022-11-06T05:34:00;99923.03;;;13.84;100.00
7333;BME280;3707;43.618;25.342;2022-11-06T05:36:27;99936.06;;;13.87;100.00
7333;BME280;3707;43.618;25.342;2022-11-06T05:38:55;99946.44;;;14.02;100.00
7333;BME280;3707;43.618;25.342;2022-11-06T05:41:21;99948.22;;;13.97;100.00
7333;BME280;3707;43.618;25.342;2022-11-06T05:43:48;99947.31;;;13.95;100.00
7333;BME280;3707;43.618;25.342;2022-11-06T05:46:15;99962.09;;;14.02;100.00
7333;BME280;3707;43.618;25.342;2022-11-06T05:48:42;99962.09;;;14.08;100.00
7333;BME280;3707;43.618;25.342;2022-11-06T05:51:09;99969.03;;;14.15;100.00
7333;BME280;3707;43.618;25.342;2022-11-06T05:53:36;99959.47;;;14.26;100.00
7333;BME280;3707;43.618;25.342;2022-11-06T05:56:05;99974.25;;;14.36;100.00
7333;BME280;3707;43.618;25.342;2022-11-06T05:58:32;99985.56;;;14.37;100.00
7333;BME280;3707;43.618;25.342;2022-11-06T06:00:59;99988.16;;;14.38;100.00
7333;BME280;3707;43.618;25.342;2022-11-06T06:03:26;99969.88;;;14.29;100.00
7333;BME280;3707;43.618;25.342;2022-11-06T06:05:53;99994.19;;;14.57;100.00
7333;BME280;3707;43.618;25.342;2022-11-06T06:08:20;99995.94;;;14.58;100.00
7333;BME280;3707;43.618;25.342;2022-11-06T06:10:46;99995.91;;;14.72;100.00
7333;BME280;3707;43.618;25.342;2022-11-06T06:13:15;99986.28;;;14.77;100.00
7333;BME280;3707;43.618;25.342;2022-11-06T06:15:42;100004.59;;;14.75;100.00
7333;BME280;3707;43.618;25.342;2022-11-06T06:18:10;100016.72;;;14.90;100.00
7333;BME280;3707;43.618;25.342;2022-11-06T06:20:38;100020.19;;;14.98;100.00
7333;BME280;3707;43.618;25.342;2022-11-06T06:23:05;99977.56;;;14.84;100.00
7333;BME280;3707;43.618;25.342;2022-11-06T06:25:32;100024.47;;;15.11;100.00
7333;BME280;3707;43.618;25.342;2022-11-06T06:27:58;100027.91;;;15.22;100.00
7333;BME280;3707;43.618;25.342;2022-11-06T06:30:27;100013.78;;;15.60;100.00
7333;BME280;3707;43.618;25.342;2022-11-06T06:32:53;100037.34;;;15.54;100.00
7333;BME280;3707;43.618;25.342;2022-11-06T06:35:20;100029.47;;;15.61;100.00
7333;BME280;3707;43.618;25.342;2022-11-06T06:37:51;100045.81;;;15.87;100.00
7333;BME280;3707;43.618;25.342;2022-11-06T06:40:18;100039.06;;;15.58;100.00
7333;BME280;3707;43.618;25.342;2022-11-06T06:42:45;100019.75;;;15.77;100.00
7333;BME280;3707;43.618;25.342;2022-11-06T06:45:12;100040.69;;;15.80;100.00
7333;BME280;3707;43.618;25.342;2022-11-06T06:47:40;100041.41;;;15.96;100.00
7333;BME280;3707;43.618;25.342;2022-11-06T06:50:07;100037.84;;;16.07;100.00
7333;BME280;3707;43.618;25.342;2022-11-06T06:52:34;100035.44;;;15.78;100.00
7333;BME280;3707;43.618;25.342;2022-11-06T06:55:01;100023.41;;;15.53;100.00
7333;BME280;3707;43.618;25.342;2022-11-06T06:57:28;100045.16;;;15.61;100.00
7333;BME280;3707;43.618;25.342;2022-11-06T06:59:55;100050.25;;;15.78;100.00
7333;BME280;3707;43.618;25.342;2022-11-06T07:02:22;100047.78;;;15.58;100.00
7333;BME280;3707;43.618;25.342;2022-11-06T07:04:50;100041.56;;;15.79;100.00
7333;BME280;3707;43.618;25.342;2022-11-06T07:07:17;100042.53;;;15.60;100.00
7333;BME280;3707;43.618;25.342;2022-11-06T07:09:43;100041.78;;;15.30;100.00
7333;BME280;3707;43.618;25.342;2022-11-06T07:12:10;99973.13;;;15.07;100.00
7333;BME280;3707;43.618;25.342;2022-11-06T07:14:37;100042.59;;;15.46;100.00
7333;BME280;3707;43.618;25.342;2022-11-06T07:17:04;100035.75;;;15.18;100.00
7333;BME280;3707;43.618;25.342;2022-11-06T07:19:30;100042.66;;;15.37;100.00
7333;BME280;3707;43.618;25.342;2022-11-06T07:21:58;100048.50;;;15.83;100.00
7333;BME280;3707;43.618;25.342;2022-11-06T07:24:25;100056.22;;;16.00;100.00
7333;BME280;3707;43.618;25.342;2022-11-06T07:26:52;100047.47;;;16.04;100.00
7333;BME280;3707;43.618;25.342;2022-11-06T07:29:19;100053.50;;;16.10;100.00
7333;BME280;3707;43.618;25.342;2022-11-06T07:31:45;100061.28;;;16.22;100.00
7333;BME280;3707;43.618;25.342;2022-11-06T07:34:12;100077.44;;;16.73;100.00
7333;BME280;3707;43.618;25.342;2022-11-06T07:36:39;100069.47;;;16.80;100.00
7333;BME280;3707;43.618;25.342;2022-11-06T07:39:07;100094.53;;;17.04;100.00
7333;BME280;3707;43.618;25.342;2022-11-06T07:41:34;100045.81;;;16.88;100.00
7333;BME280;3707;43.618;25.342;2022-11-06T07:44:01;100098.66;;;17.25;100.00
7333;BME280;3707;43.618;25.342;2022-11-06T07:46:28;100102.13;;;17.28;100.00
7333;BME280;3707;43.618;25.342;2022-11-06T07:48:54;100107.41;;;17.24;100.00
7333;BME280;3707;43.618;25.342;2022-11-06T07:51:21;100104.47;;;17.48;100.00
7333;BME280;3707;43.618;25.342;2022-11-06T07:53:48;100109.16;;;17.23;100.00
7333;BME280;3707;43.618;25.342;2022-11-06T07:56:16;100021.16;;;17.07;100.00
7333;BME280;3707;43.618;25.342;2022-11-06T07:58:43;100117.50;;;17.56;100.00
7333;BME280;3707;43.618;25.342;2022-11-06T08:01:14;100109.59;;;17.62;100.00
7333;BME280;3707;43.618;25.342;2022-11-06T08:03:41;100123.47;;;17.70;100.00
7333;BME280;3707;43.618;25.342;2022-11-06T08:06:07;100120.06;;;17.65;100.00
7333;BME280;3707;43.618;25.342;2022-11-06T08:08:35;100100.09;;;17.50;100.00
7333;BME280;3707;43.618;25.342;2022-11-06T08:11:02;100135.66;;;17.74;100.00
7333;BME280;3707;43.618;25.342;2022-11-06T08:13:30;100040.75;;;17.45;100.00
7333;BME280;3707;43.618;25.342;2022-11-06T08:16:02;100135.19;;;18.07;100.00
7333;BME280;3707;43.618;25.342;2022-11-06T08:18:29;100126.81;;;17.82;100.00
7333;BME280;3707;43.618;25.342;2022-11-06T08:20:56;100063.69;;;17.93;100.00
7333;BME280;3707;43.618;25.342;2022-11-06T08:23:22;100141.22;;;18.14;100.00
7333;BME280;3707;43.618;25.342;2022-11-06T08:25:52;100138.16;;;18.43;100.00
7333;BME280;3707;43.618;25.342;2022-11-06T08:28:19;100127.22;;;18.15;100.00
7333;BME280;3707;43.618;25.342;2022-11-06T08:30:47;100133.56;;;18.58;100.00
7333;BME280;3707;43.618;25.342;2022-11-06T08:33:14;100135.19;;;18.06;100.00
7333;BME280;3707;43.618;25.342;2022-11-06T08:35:41;100137.00;;;18.02;100.00
7333;BME280;3707;43.618;25.342;2022-11-06T08:38:08;100116.63;;;18.19;100.00
7333;BME280;3707;43.618;25.342;2022-11-06T08:40:36;100139.53;;;18.66;100.00
7333;BME280;3707;43.618;25.342;2022-11-06T08:43:05;100140.91;;;18.33;100.00
7333;BME280;3707;43.618;25.342;2022-11-06T08:45:35;100135.19;;;18.64;100.00
7333;BME280;3707;43.618;25.342;2022-11-06T08:48:04;100141.59;;;18.98;100.00
7333;BME280;3707;43.618;25.342;2022-11-06T08:50:32;100146.56;;;19.15;100.00
7333;BME280;3707;43.618;25.342;2022-11-06T08:53:00;100142.59;;;19.37;100.00
7333;BME280;3707;43.618;25.342;2022-11-06T08:55:28;100151.34;;;19.38;100.00
7333;BME280;3707;43.618;25.342;2022-11-06T08:57:55;100142.13;;;19.17;100.00
7333;BME280;3707;43.618;25.342;2022-11-06T09:00:22;100135.75;;;19.28;100.00
7333;BME280;3707;43.618;25.342;2022-11-06T09:02:49;100148.16;;;19.68;100.00
7333;BME280;3707;43.618;25.342;2022-11-06T09:05:17;100146.97;;;19.83;100.00
7333;BME280;3707;43.618;25.342;2022-11-06T09:07:44;100154.72;;;19.87;100.00
7333;BME280;3707;43.618;25.342;2022-11-06T09:10:11;100149.63;;;20.19;100.00
7333;BME280;3707;43.618;25.342;2022-11-06T09:12:37;100149.84;;;20.49;100.00
7333;BME280;3707;43.618;25.342;2022-11-06T09:15:05;100151.19;;;20.65;100.00
7333;BME280;3707;43.618;25.342;2022-11-06T09:17:32;100116.03;;;20.66;100.00
7333;BME280;3707;43.618;25.342;2022-11-06T09:19:59;100143.78;;;21.14;98.19
7333;BME280;3707;43.618;25.342;2022-11-06T09:22:27;100153.09;;;20.94;97.17
7333;BME280;3707;43.618;25.342;2022-11-06T09:24:54;100147.88;;;20.57;98.64
7333;BME280;3707;43.618;25.342;2022-11-06T09:27:20;100124.19;;;20.55;98.06
7333;BME280;3707;43.618;25.342;2022-11-06T09:29:47;100144.88;;;20.72;98.50
7333;BME280;3707;43.618;25.342;2022-11-06T09:32:14;100146.06;;;20.59;97.80
7333;BME280;3707;43.618;25.342;2022-11-06T09:34:41;100140.41;;;20.74;98.02
7333;BME280;3707;43.618;25.342;2022-11-06T09:37:07;100127.25;;;20.74;98.94
7333;BME280;3707;43.618;25.342;2022-11-06T09:39:36;100110.28;;;20.84;96.96
7333;BME280;3707;43.618;25.342;2022-11-06T09:42:11;100131.47;;;21.15;96.89
7333;BME280;3707;43.618;25.342;2022-11-06T09:44:53;100133.53;;;21.35;94.25
7333;BME280;3707;43.618;25.342;2022-11-06T09:47:27;100126.41;;;21.38;94.95
7333;BME280;3707;43.618;25.342;2022-11-06T09:49:56;100102.16;;;21.25;94.57
7333;BME280;3707;43.618;25.342;2022-11-06T09:52:29;100119.34;;;21.39;93.82
7333;BME280;3707;43.618;25.342;2022-11-06T09:55:01;100124.75;;;21.65;93.98
7333;BME280;3707;43.618;25.342;2022-11-06T09:57:35;100120.94;;;21.44;93.99
7333;BME280;3707;43.618;25.342;2022-11-06T10:00:05;100112.75;;;21.22;94.05
7333;BME280;3707;43.618;25.342;2022-11-06T10:02:36;100115.16;;;20.99;95.35
7333;BME280;3707;43.618;25.342;2022-11-06T10:05:13;100117.81;;;20.98;96.58
7333;BME280;3707;43.618;25.342;2022-11-06T10:07:45;100087.69;;;20.75;96.68
7333;BME280;3707;43.618;25.342;2022-11-06T10:10:16;100090.63;;;21.30;94.59
7333;BME280;3707;43.618;25.342;2022-11-06T10:12:56;100101.50;;;21.17;95.09
7333;BME280;3707;43.618;25.342;2022-11-06T10:15:32;100110.00;;;21.58;93.12
7333;BME280;3707;43.618;25.342;2022-11-06T10:18:04;100087.69;;;21.08;94.96
7333;BME280;3707;43.618;25.342;2022-11-06T10:20:42;100108.34;;;21.23;94.02
7333;BME280;3707;43.618;25.342;2022-11-06T10:23:18;100104.81;;;21.55;92.31
7333;BME280;3707;43.618;25.342;2022-11-06T10:25:56;100110.25;;;21.49;90.31
7333;BME280;3707;43.618;25.342;2022-11-06T10:28:42;100104.16;;;21.76;88.22
7333;BME280;3707;43.618;25.342;2022-11-06T10:31:17;100100.72;;;21.74;89.38
7333;BME280;3707;43.618;25.342;2022-11-06T10:33:54;100069.50;;;21.59;87.93
7333;BME280;3707;43.618;25.342;2022-11-06T10:36:24;100075.28;;;21.71;87.26
7333;BME280;3707;43.618;25.342;2022-11-06T10:38:54;100094.13;;;22.16;85.11
7333;BME280;3707;43.618;25.342;2022-11-06T10:41:25;100086.31;;;22.13;84.52
7333;BME280;3707;43.618;25.342;2022-11-06T10:43:56;100093.63;;;22.32;84.46
7333;BME280;3707;43.618;25.342;2022-11-06T10:46:29;100087.59;;;22.28;84.09
7333;BME280;3707;43.618;25.342;2022-11-06T10:49:00;100074.75;;;22.17;83.63
7333;BME280;3707;43.618;25.342;2022-11-06T10:51:49;100078.91;;;22.51;81.67
7333;BME280;3707;43.618;25.342;2022-11-06T10:54:28;100078.81;;;22.28;83.29
7333;BME280;3707;43.618;25.342;2022-11-06T10:57:06;100090.03;;;22.34;83.68
7333;BME280;3707;43.618;25.342;2022-11-06T10:59:37;100077.94;;;22.01;85.09
7333;BME280;3707;43.618;25.342;2022-11-06T11:02:15;100071.84;;;22.25;85.57
7333;BME280;3707;43.618;25.342;2022-11-06T11:04:46;100054.34;;;21.65;87.43
7333;BME280;3707;43.618;25.342;2022-11-06T11:07:14;100053.63;;;21.88;86.10
7333;BME280;3707;43.618;25.342;2022-11-06T11:09:41;100079.28;;;22.12;85.37
7333;BME280;3707;43.618;25.342;2022-11-06T11:12:19;100076.09;;;22.03;86.61
7333;BME280;3707;43.618;25.342;2022-11-06T11:15:04;100068.97;;;22.05;86.70
7333;BME280;3707;43.618;25.342;2022-11-06T11:17:32;100075.28;;;21.71;88.47
7333;BME280;3707;43.618;25.342;2022-11-06T11:19:58;100070.34;;;21.90;87.25
7333;BME280;3707;43.618;25.342;2022-11-06T11:22:26;100069.53;;;21.87;87.87
7333;BME280;3707;43.618;25.342;2022-11-06T11:25:01;100076.72;;;22.11;88.43
7333;BME280;3707;43.618;25.342;2022-11-06T11:27:31;100066.41;;;22.03;88.82
7333;BME280;3707;43.618;25.342;2022-11-06T11:30:02;100071.59;;;22.05;89.00
7333;BME280;3707;43.618;25.342;2022-11-06T11:32:29;100075.78;;;22.12;87.59
7333;BME280;3707;43.618;25.342;2022-11-06T11:34:57;100068.69;;;22.14;86.71
7333;BME280;3707;43.618;25.342;2022-11-06T11:37:26;100071.47;;;22.09;86.41
7333;BME280;3707;43.618;25.342;2022-11-06T11:39:53;100032.09;;;21.74;88.60
7333;BME280;3707;43.618;25.342;2022-11-06T11:42:26;100069.84;;;22.05;87.34
7333;BME280;3707;43.618;25.342;2022-11-06T11:45:13;100028.41;;;22.07;86.29
7333;BME280;3707;43.618;25.342;2022-11-06T11:47:42;100073.19;;;22.10;86.63
7333;BME280;3707;43.618;25.342;2022-11-06T11:50:18;100073.41;;;22.04;87.34
7333;BME280;3707;43.618;25.342;2022-11-06T11:52:52;100055.94;;;22.27;87.39
7333;BME280;3707;43.618;25.342;2022-11-06T11:55:23;100063.97;;;22.23;89.71
7333;BME280;3707;43.618;25.342;2022-11-06T11:57:53;100063.69;;;22.05;90.66
7333;BME280;3707;43.618;25.342;2022-11-06T12:00:22;100065.91;;;22.18;89.81
7333;BME280;3707;43.618;25.342;2022-11-06T12:02:52;99977.19;;;21.85;90.29
7333;BME280;3707;43.618;25.342;2022-11-06T12:05:22;100046.31;;;22.26;88.98
7333;BME280;3707;43.618;25.342;2022-11-06T12:07:53;100060.81;;;22.65;87.85
7333;BME280;3707;43.618;25.342;2022-11-06T12:10:27;100053.38;;;22.76;86.73
7333;BME280;3707;43.618;25.342;2022-11-06T12:12:54;100064.25;;;22.68;85.42
7333;BME280;3707;43.618;25.342;2022-11-06T12:15:27;100041.63;;;22.85;84.90
7333;BME280;3707;43.618;25.342;2022-11-06T12:17:59;100049.06;;;22.98;83.38
7333;BME280;3707;43.618;25.342;2022-11-06T12:20:34;100060.41;;;23.50;82.39
7333;BME280;3707;43.618;25.342;2022-11-06T12:23:03;100061.44;;;23.46;80.03
7333;BME280;3707;43.618;25.342;2022-11-06T12:25:35;100044.94;;;23.38;79.42
7333;BME280;3707;43.618;25.342;2022-11-06T12:28:11;100061.34;;;23.70;76.91
7333;BME280;3707;43.618;25.342;2022-11-06T12:30:45;100060.56;;;23.45;78.69
7333;BME280;3707;43.618;25.342;2022-11-06T12:33:17;99986.97;;;22.85;80.41
7333;BME280;3707;43.618;25.342;2022-11-06T12:35:47;100039.38;;;23.45;79.17
7333;BME280;3707;43.618;25.342;2022-11-06T12:38:26;100068.16;;;23.76;76.38
7333;BME280;3707;43.618;25.342;2022-11-06T12:40:58;100058.75;;;23.91;75.91
7333;BME280;3707;43.618;25.342;2022-11-06T12:43:33;100053.44;;;23.69;75.60
7333;BME280;3707;43.618;25.342;2022-11-06T12:46:13;100064.31;;;23.85;73.64
7333;BME280;3707;43.618;25.342;2022-11-06T12:49:02;100060.22;;;23.76;72.05
7333;BME280;3707;43.618;25.342;2022-11-06T12:51:40;100064.13;;;23.67;72.29
7333;BME280;3707;43.618;25.342;2022-11-06T12:54:20;100063.09;;;23.93;71.22
7333;BME280;3707;43.618;25.342;2022-11-06T12:56:55;100068.63;;;23.87;70.92
7333;BME280;3707;43.618;25.342;2022-11-06T12:59:34;100060.25;;;23.98;69.77
7333;BME280;3707;43.618;25.342;2022-11-06T13:02:21;100064.06;;;23.91;66.85
7333;BME280;3707;43.618;25.342;2022-11-06T13:04:54;100064.69;;;23.97;65.41
7333;BME280;3707;43.618;25.342;2022-11-06T13:07:34;100062.13;;;24.17;62.73
7333;BME280;3707;43.618;25.342;2022-11-06T13:10:17;100068.34;;;24.16;60.24
7333;BME280;3707;43.618;25.342;2022-11-06T13:12:53;100065.22;;;24.29;57.82
7333;BME280;3707;43.618;25.342;2022-11-06T13:15:27;100067.09;;;24.03;57.46
7333;BME280;3707;43.618;25.342;2022-11-06T13:18:05;100063.19;;;24.12;56.54